Map

Track Data

SID SEASON NUMBER BASIN SUBBASIN NAME ISO_TIME NATURE LAT LON WMO_WIND WMO_PRES WMO_AGENCY TRACK_TYPE DIST2LAND LANDFALL IFLAG USA_AGENCY USA_ATCF_ID USA_LAT USA_LON USA_RECORD USA_STATUS USA_WIND USA_PRES USA_SSHS USA_R34_NE USA_R34_SE USA_R34_SW USA_R34_NW USA_R50_NE USA_R50_SE USA_R50_SW USA_R50_NW USA_R64_NE USA_R64_SE USA_R64_SW USA_R64_NW USA_POCI USA_ROCI USA_RMW USA_EYE TOKYO_LAT TOKYO_LON TOKYO_GRADE TOKYO_WIND TOKYO_PRES TOKYO_R50_DIR TOKYO_R50_LONG TOKYO_R50_SHORT TOKYO_R30_DIR TOKYO_R30_LONG TOKYO_R30_SHORT TOKYO_LAND CMA_LAT CMA_LON CMA_CAT CMA_WIND CMA_PRES HKO_LAT HKO_LON HKO_CAT HKO_WIND HKO_PRES NEWDELHI_LAT NEWDELHI_LON NEWDELHI_GRADE NEWDELHI_WIND NEWDELHI_PRES NEWDELHI_CI NEWDELHI_DP NEWDELHI_POCI REUNION_LAT REUNION_LON REUNION_TYPE REUNION_WIND REUNION_PRES REUNION_TNUM REUNION_CI REUNION_RMW REUNION_R34_NE REUNION_R34_SE REUNION_R34_SW REUNION_R34_NW REUNION_R50_NE REUNION_R50_SE REUNION_R50_SW REUNION_R50_NW REUNION_R64_NE REUNION_R64_SE REUNION_R64_SW REUNION_R64_NW BOM_LAT BOM_LON BOM_TYPE BOM_WIND BOM_PRES BOM_TNUM BOM_CI BOM_RMW BOM_R34_NE BOM_R34_SE BOM_R34_SW BOM_R34_NW BOM_R50_NE BOM_R50_SE BOM_R50_SW BOM_R50_NW BOM_R64_NE BOM_R64_SE BOM_R64_SW BOM_R64_NW BOM_ROCI BOM_POCI BOM_EYE BOM_POS_METHOD BOM_PRES_METHOD NADI_LAT NADI_LON NADI_CAT NADI_WIND NADI_PRES WELLINGTON_LAT WELLINGTON_LON WELLINGTON_WIND WELLINGTON_PRES DS824_LAT DS824_LON DS824_STAGE DS824_WIND DS824_PRES TD9636_LAT TD9636_LON TD9636_STAGE TD9636_WIND TD9636_PRES TD9635_LAT TD9635_LON TD9635_WIND TD9635_PRES TD9635_ROCI NEUMANN_LAT NEUMANN_LON NEUMANN_CLASS NEUMANN_WIND NEUMANN_PRES MLC_LAT MLC_LON MLC_CLASS MLC_WIND MLC_PRES USA_GUST BOM_GUST BOM_GUST_PER REUNION_GUST REUNION_GUST_PER USA_SEAHGT USA_SEARAD_NE USA_SEARAD_SE USA_SEARAD_SW USA_SEARAD_NW STORM_SPEED STORM_DIR
1953019S14061 1953 6 SI MM NOT_NAMED 1953-01-18 18:00:00 TS -13.7000 61.2000 main 807 723 O________OO___ jtwc_sh SH081953 -13.7000 61.2000 -1 -13.7000 61.2000 TC -13.7000 61.2000 7 17 188
1953019S14061 1953 6 SI MM NOT_NAMED 1953-01-18 21:00:00 TS -14.5577 61.0758 main 713 640 P________PP___ SH081953 -14.5726 61.0827 -1 -14.5726 61.0827 TC -14.5279 61.0621 7 17 187
1953019S14061 1953 6 SI MM NOT_NAMED 1953-01-19 00:00:00 TS -15.3782 60.9895 main 631 567 O________OP___ jtwc_sh SH081953 -15.4000 61.0000 -1 -15.4000 61.0000 TC -15.3347 60.9686 7 16 183
1953019S14061 1953 6 SI MM NOT_NAMED 1953-01-19 03:00:00 TS -16.1296 60.9820 main 567 514 P________PP___ SH081953 -16.1449 60.9901 -1 -16.1449 60.9901 TC -16.0991 60.9657 7 14 176
1953019S14061 1953 6 SI MM NOT_NAMED 1953-01-19 06:00:00 TS -16.8000 61.1000 main 514 491 O________OO___ jtwc_sh SH081953 -16.8000 61.1000 -1 -16.8000 61.1000 TC 65 -16.8000 61.1000 4 13 163
1953019S14061 1953 6 SI MM NOT_NAMED 1953-01-19 09:00:00 TS -17.3895 61.3727 main 492 481 P________PP___ SH081953 -17.3726 61.3624 -1 -17.3726 61.3624 TC 65 -17.4234 61.3932 4 13 152
1953019S14061 1953 6 SI MM NOT_NAMED 1953-01-19 12:00:00 TS -17.9278 61.7212 main 487 481 O________OP___ jtwc_sh SH081953 -17.9000 61.7000 -1 -17.9000 61.7000 TC 65 -17.9833 61.7635 4 13 149
1953019S14061 1953 6 SI MM NOT_NAMED 1953-01-19 15:00:00 TS -18.4722 62.0639 main 493 489 P________PP___ SH081953 -18.4576 62.0447 -1 -18.4576 62.0447 TC 65 -18.5014 62.1024 4 12 153
1953019S14061 1953 6 SI MM NOT_NAMED 1953-01-19 18:00:00 TS -19.0000 62.3000 main 493 489 O________OO___ jtwc_sh SH081953 -19.0000 62.3000 -1 -19.0000 62.3000 TC 65 -19.0000 62.3000 4 11 164
1953019S14061 1953 6 SI MM NOT_NAMED 1953-01-19 21:00:00 TS -19.5144 62.3804 main 489 470 P________PP___ SH081953 -19.5072 62.4197 -1 -19.5072 62.4197 TC 65 -19.5290 62.3016 4 10 183
1953019S14061 1953 6 SI MM NOT_NAMED 1953-01-20 00:00:00 TS -20.0141 62.2457 main 460 427 O________OP___ jtwc_sh SH081953 -20.0000 62.3000 -1 -20.0000 62.3000 TC 65 -20.0423 62.1370 4 11 205
1953019S14061 1953 6 SI MM NOT_NAMED 1953-01-20 03:00:00 TS -20.5214 61.8814 main 427 372 P________PP___ SH081953 -20.5148 61.9201 -1 -20.5148 61.9201 TC 65 -20.5346 61.8038 4 13 222
1953019S14061 1953 6 SI MM NOT_NAMED 1953-01-20 06:00:00 TS -21.0000 61.3000 main 372 315 O________OO___ jtwc_sh SH081953 -21.0000 61.3000 -1 -21.0000 61.3000 TC 65 -21.0000 61.3000 4 15 233
1953019S14061 1953 6 SI MM NOT_NAMED 1953-01-20 09:00:00 TS -21.4228 60.5831 main 315 261 P________PP___ SH081953 -21.4151 60.5522 -1 -21.4151 60.5522 TC 65 -21.4384 60.6450 4 17 241
1953019S14061 1953 6 SI MM NOT_NAMED 1953-01-20 12:00:00 TS -21.8157 59.7435 main 253 223 O________OP___ jtwc_sh SH081953 -21.8000 59.7000 -1 -21.8000 59.7000 TC 65 -21.8470 59.8305 4 18 243
1953019S14061 1953 6 SI MM NOT_NAMED 1953-01-20 15:00:00 TS -22.2154 58.8800 main 227 221 P________PP___ SH081953 -22.2072 58.8572 -1 -22.2072 58.8572 TC 65 -22.2318 58.9256 4 18 244
1953019S14061 1953 6 SI MM NOT_NAMED 1953-01-20 18:00:00 TS -22.6000 58.0000 main 236 229 O________OO___ jtwc_sh SH081953 -22.6000 58.0000 -1 -22.6000 58.0000 TC 65 -22.6000 58.0000 4 18 245
1953019S14061 1953 6 SI MM NOT_NAMED 1953-01-20 21:00:00 TS -22.9486 57.1405 main 223 217 P________PP___ SH081953 -22.9570 57.1494 -1 -22.9570 57.1494 TC 50 -22.9319 57.1225 4 17 247
1953019S14061 1953 6 SI MM NOT_NAMED 1953-01-21 00:00:00 TS -23.2851 56.2815 main 224 218 O________OP___ jtwc_sh SH081953 -23.3000 56.3000 -1 -23.3000 56.3000 TC 35 -23.2552 56.2444 4 17 247
1953019S14061 1953 6 SI MM NOT_NAMED 1953-01-21 03:00:00 TS -23.6185 55.4209 main 246 246 P________PP___ SH081953 -23.6273 55.4343 -1 -23.6273 55.4343 TC 35 -23.6008 55.3942 4 17 245
1953019S14061 1953 6 SI MM NOT_NAMED 1953-01-21 06:00:00 TS -24.0000 54.6000 main 308 308 O________OO___ jtwc_sh SH081953 -24.0000 54.6000 -1 -24.0000 54.6000 TC 35 -24.0000 54.6000 2 17 240
1953019S14061 1953 6 SI MM NOT_NAMED 1953-01-21 09:00:00 TS -24.4547 53.8085 main 389 389 P________PP___ SH081953 -24.4623 53.8048 -1 -24.4623 53.8048 TC 30 -24.4394 53.8158 2 17 234
1953019S14061 1953 6 SI MM NOT_NAMED 1953-01-21 12:00:00 TS -24.9809 53.0995 main 470 470 O________OP___ jtwc_sh SH081953 -25.0000 53.1000 -1 -25.0000 53.1000 TC 25 -24.9425 53.0986 2 16 228
1953019S14061 1953 6 SI MM NOT_NAMED 1953-01-21 15:00:00 TS -25.5446 52.4820 main 531 504 P________PP___ SH081953 -25.5548 52.4821 -1 -25.5548 52.4821 TC 25 -25.5243 52.4819 2 16 219
1953019S14061 1953 6 SI MM NOT_NAMED 1953-01-21 18:00:00 TS -26.2000 52.0000 main 508 497 O________OO___ jtwc_sh SH081953 -26.2000 52.0000 -1 -26.2000 52.0000 TC 25 -26.2000 52.0000 7 16 208
1953019S14061 1953 6 SI MM NOT_NAMED 1953-01-21 21:00:00 TS -26.9576 51.6417 main 501 501 P________PP___ SH081953 -26.9473 51.6250 -1 -26.9473 51.6250 TC 25 -26.9781 51.6751 7 17 198
1953019S14061 1953 6 SI MM NOT_NAMED 1953-01-22 00:00:00 TS -27.8131 51.4261 main 529 529 O________OP___ jtwc_sh SH081953 -27.8000 51.4000 -1 -27.8000 51.4000 TC 25 -27.8392 51.4784 7 18 189
1953019S14061 1953 6 SI MM NOT_NAMED 1953-01-22 03:00:00 TS -28.7386 51.3307 main 585 585 P________PP___ SH081953 -28.7300 51.3122 -1 -28.7300 51.3122 TC 25 -28.7558 51.3677 7 19 183
1953019S14061 1953 6 SI MM NOT_NAMED 1953-01-22 06:00:00 TS -29.7000 51.3000 main 665 O________OO___ jtwc_sh SH081953 -29.7000 51.3000 -1 -29.7000 51.3000 TC 25 -29.7000 51.3000 7 19 0

About IBTrACS Database

This database is a web-friendly format of International Best Track Archive for Climate Stewardship (IBTrACS), a global best track data archive curated by NOAA dating back to 1842.

Updated: 2021-10-08